createdAt,value
2022-12-29T00:02:16.415Z,961.63
2022-12-29T00:04:42.715Z,961.59
2022-12-29T00:07:09.128Z,961.61
2022-12-29T00:09:35.459Z,961.61
2022-12-29T00:12:01.840Z,961.63
2022-12-29T00:14:28.163Z,961.62
2022-12-29T00:16:54.523Z,961.63
2022-12-29T00:19:20.918Z,961.71
2022-12-29T00:21:47.294Z,961.68
2022-12-29T00:24:13.604Z,961.68
2022-12-29T00:26:39.984Z,961.70
2022-12-29T00:29:06.294Z,961.69
2022-12-29T00:31:32.794Z,961.71
2022-12-29T00:33:59.064Z,961.75
2022-12-29T00:36:25.442Z,961.81
2022-12-29T00:38:51.815Z,961.78
2022-12-29T00:41:18.179Z,961.84
2022-12-29T00:43:44.505Z,961.80
2022-12-29T00:46:17.634Z,961.86
2022-12-29T00:48:37.184Z,961.87
2022-12-29T00:51:03.562Z,961.87
2022-12-29T00:53:29.911Z,961.83
2022-12-29T00:55:56.310Z,961.82
2022-12-29T00:58:22.621Z,961.88
2022-12-29T01:00:49.085Z,961.84
2022-12-29T01:03:15.481Z,961.89
2022-12-29T01:05:41.737Z,961.82
2022-12-29T01:08:08.090Z,961.84
2022-12-29T01:10:34.465Z,961.89
2022-12-29T01:13:00.782Z,961.79
2022-12-29T01:15:27.165Z,961.77
2022-12-29T01:17:53.525Z,961.79
2022-12-29T01:20:20.280Z,961.72
2022-12-29T01:22:46.637Z,961.76
2022-12-29T01:25:12.976Z,961.74
2022-12-29T01:27:39.353Z,961.72
2022-12-29T01:30:05.720Z,961.69
2022-12-29T01:32:32.072Z,961.70
2022-12-29T01:34:58.414Z,961.66
2022-12-29T01:37:24.727Z,961.63
2022-12-29T01:39:51.074Z,961.60
2022-12-29T01:42:17.412Z,961.60
2022-12-29T01:44:43.754Z,961.60
2022-12-29T01:47:10.081Z,961.58
2022-12-29T01:49:36.441Z,961.54
2022-12-29T01:52:02.763Z,961.49
2022-12-29T01:54:29.121Z,961.42
2022-12-29T01:56:55.439Z,961.37
2022-12-29T01:59:21.826Z,961.45
2022-12-29T02:01:48.319Z,961.41
2022-12-29T02:04:14.545Z,961.39
2022-12-29T02:06:40.893Z,961.32
2022-12-29T02:09:07.250Z,961.31
2022-12-29T02:11:33.600Z,961.34
2022-12-29T02:14:03.416Z,961.35
2022-12-29T02:16:26.336Z,961.39
2022-12-29T02:18:52.682Z,961.42
2022-12-29T02:21:19.077Z,961.40
2022-12-29T02:23:45.419Z,961.37
2022-12-29T02:26:11.747Z,961.38
2022-12-29T02:28:38.104Z,961.37
2022-12-29T02:31:04.445Z,961.33
2022-12-29T02:33:30.851Z,961.28
2022-12-29T02:35:57.209Z,961.27
2022-12-29T02:38:23.590Z,961.35
2022-12-29T02:40:49.961Z,961.34
2022-12-29T02:43:16.343Z,961.35
2022-12-29T02:45:42.730Z,961.32
2022-12-29T02:48:09.027Z,961.32
2022-12-29T02:50:35.366Z,961.27
2022-12-29T02:53:01.780Z,961.31
2022-12-29T02:55:28.089Z,961.30
2022-12-29T02:57:54.432Z,961.24
2022-12-29T03:00:20.808Z,961.23
2022-12-29T03:02:47.291Z,961.18
2022-12-29T03:05:13.481Z,961.22
2022-12-29T03:07:39.850Z,961.20
2022-12-29T03:10:06.247Z,961.17
2022-12-29T03:12:32.557Z,961.21
2022-12-29T03:14:58.937Z,961.22
2022-12-29T03:17:25.254Z,961.16
2022-12-29T03:19:51.631Z,961.17
2022-12-29T03:22:17.924Z,961.10
2022-12-29T03:24:44.348Z,961.10
2022-12-29T03:27:10.636Z,961.19
2022-12-29T03:29:36.972Z,961.11
2022-12-29T03:32:03.297Z,961.18
2022-12-29T03:34:29.636Z,961.13
2022-12-29T03:36:55.958Z,961.17
2022-12-29T03:39:22.348Z,961.23
2022-12-29T03:41:48.705Z,961.17
2022-12-29T03:44:15.094Z,961.20
2022-12-29T03:46:41.510Z,961.21
2022-12-29T03:49:07.810Z,961.28
2022-12-29T03:51:34.116Z,961.28
2022-12-29T03:54:00.480Z,961.24
2022-12-29T03:56:26.857Z,961.29
2022-12-29T03:58:53.201Z,961.34
2022-12-29T04:01:19.646Z,961.31
2022-12-29T04:03:45.970Z,961.38
2022-12-29T04:06:14.597Z,961.37
2022-12-29T04:08:38.621Z,961.35
2022-12-29T04:11:04.953Z,961.36
2022-12-29T04:13:31.301Z,961.34
2022-12-29T04:15:57.718Z,961.39
2022-12-29T04:18:24.046Z,961.31
2022-12-29T04:20:50.423Z,961.39
2022-12-29T04:23:16.788Z,961.42
2022-12-29T04:25:43.121Z,961.37
2022-12-29T04:28:09.488Z,961.35
2022-12-29T04:30:35.836Z,961.44
2022-12-29T04:33:02.187Z,961.46
2022-12-29T04:35:28.507Z,961.45
2022-12-29T04:37:54.872Z,961.52
2022-12-29T04:40:21.249Z,961.51
2022-12-29T04:42:47.577Z,961.47
2022-12-29T04:45:13.961Z,961.57
2022-12-29T04:47:40.351Z,961.56
2022-12-29T04:50:06.660Z,961.65
2022-12-29T04:52:33.005Z,961.64
2022-12-29T04:54:59.371Z,961.65
2022-12-29T04:57:25.762Z,961.68
2022-12-29T04:59:52.079Z,961.71
2022-12-29T05:02:18.709Z,961.67
2022-12-29T05:04:44.839Z,961.66
2022-12-29T05:07:11.202Z,961.70
2022-12-29T05:09:37.540Z,961.64
2022-12-29T05:12:03.893Z,961.68
2022-12-29T05:14:30.280Z,961.64
2022-12-29T05:19:40.599Z,961.67
2022-12-29T05:22:06.973Z,961.73
2022-12-29T05:24:33.259Z,961.67
2022-12-29T05:26:59.649Z,961.65
2022-12-29T05:29:25.975Z,961.63
2022-12-29T05:31:52.490Z,961.62
2022-12-29T05:34:18.687Z,961.62
2022-12-29T05:36:45.068Z,961.74
2022-12-29T05:39:11.429Z,961.68
2022-12-29T05:41:37.798Z,961.73
2022-12-29T05:44:04.172Z,961.73
2022-12-29T05:46:30.604Z,961.73
2022-12-29T05:48:56.898Z,961.73
2022-12-29T05:54:07.244Z,961.71
2022-12-29T05:56:33.640Z,961.80
2022-12-29T05:58:59.897Z,961.83
2022-12-29T06:01:26.298Z,961.83
2022-12-29T06:03:52.689Z,961.87
2022-12-29T06:06:18.904Z,961.89
2022-12-29T06:08:45.225Z,961.90
2022-12-29T06:11:11.594Z,961.94
2022-12-29T06:13:37.902Z,961.95
2022-12-29T06:16:04.353Z,961.94
2022-12-29T06:18:30.634Z,961.87
2022-12-29T06:20:57.042Z,961.92
2022-12-29T06:23:23.392Z,961.92
2022-12-29T06:25:49.764Z,961.89
2022-12-29T06:28:16.036Z,961.98
2022-12-29T06:30:42.388Z,961.95
2022-12-29T06:33:08.741Z,961.95
2022-12-29T06:35:35.070Z,961.99
2022-12-29T06:38:01.385Z,961.92
2022-12-29T06:40:27.716Z,961.96
2022-12-29T06:42:54.060Z,962.02
2022-12-29T06:45:20.391Z,961.98
2022-12-29T06:47:46.746Z,961.99
2022-12-29T06:50:13.086Z,962.01
2022-12-29T06:52:39.436Z,962.03
2022-12-29T06:55:05.775Z,962.06
2022-12-29T06:57:32.147Z,962.08
2022-12-29T06:59:58.520Z,962.11
2022-12-29T07:02:24.947Z,962.10
2022-12-29T07:04:51.214Z,962.11
2022-12-29T07:07:17.580Z,962.08
2022-12-29T07:09:43.904Z,962.06
2022-12-29T07:12:10.236Z,962.10
2022-12-29T07:14:42.666Z,962.12
2022-12-29T07:17:02.954Z,962.03
2022-12-29T07:19:29.206Z,962.07
2022-12-29T07:21:55.573Z,962.06
2022-12-29T07:24:21.895Z,961.96
2022-12-29T07:26:48.260Z,962.04
2022-12-29T07:29:14.624Z,962.03
2022-12-29T07:31:41.029Z,962.02
2022-12-29T07:34:07.299Z,961.94
2022-12-29T07:36:34.780Z,962.03
2022-12-29T07:39:00.008Z,962.03
2022-12-29T07:41:26.373Z,962.06
2022-12-29T07:43:52.763Z,962.12
2022-12-29T07:46:54.236Z,962.08
2022-12-29T07:48:45.468Z,962.08
2022-12-29T07:51:11.851Z,962.08
2022-12-29T07:53:38.216Z,962.20
2022-12-29T07:56:04.580Z,962.12
2022-12-29T07:58:30.931Z,962.12
2022-12-29T08:00:57.341Z,962.15
2022-12-29T08:03:23.700Z,962.14
2022-12-29T08:05:50.022Z,962.19
2022-12-29T08:08:16.359Z,962.15
2022-12-29T08:10:42.691Z,962.21
2022-12-29T08:13:09.078Z,962.22
2022-12-29T08:15:35.517Z,962.14
2022-12-29T08:18:01.856Z,962.16
2022-12-29T08:20:28.227Z,962.11
2022-12-29T08:22:54.580Z,962.10
2022-12-29T08:25:20.957Z,962.02
2022-12-29T08:27:47.288Z,962.05
2022-12-29T08:30:13.651Z,962.03
2022-12-29T08:32:39.999Z,962.03
2022-12-29T08:35:06.323Z,962.08
2022-12-29T08:37:32.715Z,962.05
2022-12-29T08:39:59.073Z,962.03
2022-12-29T08:42:25.464Z,962.07
2022-12-29T08:44:51.790Z,962.02
2022-12-29T08:47:18.169Z,962.09
2022-12-29T08:49:44.496Z,961.99
2022-12-29T08:52:10.899Z,962.05
2022-12-29T08:54:37.206Z,962.00
2022-12-29T08:57:03.545Z,961.98
2022-12-29T08:59:29.912Z,961.94
2022-12-29T09:01:56.388Z,961.89
2022-12-29T09:04:22.807Z,961.88
2022-12-29T09:06:48.973Z,961.86
2022-12-29T09:09:15.343Z,961.84
2022-12-29T09:11:41.829Z,961.80
2022-12-29T09:14:08.211Z,961.82
2022-12-29T09:16:34.580Z,961.80
2022-12-29T09:19:00.867Z,961.80
2022-12-29T09:21:27.257Z,961.80
2022-12-29T09:23:53.617Z,961.72
2022-12-29T09:26:19.961Z,961.73
2022-12-29T09:28:46.279Z,961.73
2022-12-29T09:31:12.708Z,961.70
2022-12-29T09:33:39.022Z,961.71
2022-12-29T09:36:05.364Z,961.75
2022-12-29T09:38:31.748Z,961.71
2022-12-29T09:40:58.131Z,961.62
2022-12-29T09:43:24.480Z,961.55
2022-12-29T09:45:50.831Z,961.56
2022-12-29T09:48:17.190Z,961.50
2022-12-29T09:50:43.577Z,961.54
2022-12-29T09:53:09.935Z,961.50
2022-12-29T09:55:36.271Z,961.48
2022-12-29T09:58:02.636Z,961.43
2022-12-29T10:00:29.126Z,961.45
2022-12-29T10:02:55.513Z,961.39
2022-12-29T10:05:21.752Z,961.33
2022-12-29T10:07:48.151Z,961.31
2022-12-29T10:10:14.500Z,961.33
2022-12-29T10:12:40.871Z,961.29
2022-12-29T10:15:07.223Z,961.28
2022-12-29T10:17:33.549Z,961.24
2022-12-29T10:19:59.886Z,961.20
2022-12-29T10:22:26.249Z,961.21
2022-12-29T10:24:52.606Z,961.19
2022-12-29T10:27:18.979Z,961.22
2022-12-29T10:29:45.376Z,961.15
2022-12-29T10:32:11.853Z,961.14
2022-12-29T10:34:38.098Z,961.10
2022-12-29T10:37:04.490Z,961.13
2022-12-29T10:39:30.770Z,961.03
2022-12-29T10:41:57.180Z,961.05
2022-12-29T10:44:23.548Z,961.05
2022-12-29T10:46:49.921Z,960.97
2022-12-29T10:49:21.292Z,960.95
2022-12-29T10:51:42.677Z,960.92
2022-12-29T10:54:09.005Z,960.90
2022-12-29T10:56:35.337Z,960.89
2022-12-29T10:59:01.682Z,960.93
2022-12-29T11:01:28.113Z,960.78
2022-12-29T11:03:54.382Z,960.72
2022-12-29T11:06:20.755Z,960.77
2022-12-29T11:08:47.095Z,960.72
2022-12-29T11:11:13.437Z,960.67
2022-12-29T11:13:39.844Z,960.64
2022-12-29T11:16:06.287Z,960.66
2022-12-29T11:18:32.557Z,960.60
2022-12-29T11:20:58.893Z,960.61
2022-12-29T11:23:25.285Z,960.56
2022-12-29T11:25:51.646Z,960.55
2022-12-29T11:28:18.037Z,960.60
2022-12-29T11:30:44.421Z,960.58
2022-12-29T11:33:11.033Z,960.52
2022-12-29T11:35:37.321Z,960.48
2022-12-29T11:38:03.725Z,960.53
2022-12-29T11:40:30.047Z,960.45
2022-12-29T11:42:56.454Z,960.50
2022-12-29T11:45:22.905Z,960.42
2022-12-29T11:47:49.248Z,960.35
2022-12-29T11:50:15.717Z,960.38
2022-12-29T11:52:42.039Z,960.39
2022-12-29T11:55:08.334Z,960.46
2022-12-29T11:57:34.677Z,960.42
2022-12-29T12:00:01.036Z,960.39
2022-12-29T12:02:27.475Z,960.33
2022-12-29T12:04:53.779Z,960.29
2022-12-29T12:07:20.130Z,960.24
2022-12-29T12:09:46.464Z,960.24
2022-12-29T12:12:12.858Z,960.29
2022-12-29T12:14:39.215Z,960.30
2022-12-29T12:17:05.592Z,960.25
2022-12-29T12:19:31.883Z,960.30
2022-12-29T12:21:58.230Z,960.29
2022-12-29T12:24:24.593Z,960.17
2022-12-29T12:26:50.968Z,960.15
2022-12-29T12:29:17.284Z,960.11
2022-12-29T12:31:43.632Z,960.10
2022-12-29T12:34:09.960Z,960.16
2022-12-29T12:36:36.332Z,960.06
2022-12-29T12:39:02.665Z,960.07
2022-12-29T12:41:29.029Z,960.05
2022-12-29T12:43:55.424Z,960.06
2022-12-29T12:46:21.883Z,960.03
2022-12-29T12:48:48.226Z,960.06
2022-12-29T12:51:14.545Z,960.08
2022-12-29T12:53:40.903Z,960.02
2022-12-29T12:56:07.275Z,960.02
2022-12-29T12:58:33.596Z,960.02
2022-12-29T13:00:59.982Z,960.11
2022-12-29T13:03:26.343Z,960.14
2022-12-29T13:05:52.653Z,960.00
2022-12-29T13:08:19.043Z,960.01
2022-12-29T13:10:49.921Z,960.10
2022-12-29T13:13:11.722Z,960.07
2022-12-29T13:15:38.086Z,960.05
2022-12-29T13:18:04.379Z,960.01
2022-12-29T13:20:30.716Z,960.03
2022-12-29T13:22:57.073Z,960.06
2022-12-29T13:25:23.458Z,960.07
2022-12-29T13:27:49.825Z,960.11
2022-12-29T13:30:16.221Z,960.09
2022-12-29T13:32:42.573Z,960.13
2022-12-29T13:35:08.906Z,960.11
2022-12-29T13:37:35.253Z,960.10
2022-12-29T13:40:01.627Z,960.11
2022-12-29T13:42:27.967Z,960.08
2022-12-29T13:44:54.285Z,960.02
2022-12-29T13:47:20.664Z,960.05
2022-12-29T13:49:46.982Z,960.07
2022-12-29T13:52:13.330Z,960.07
2022-12-29T13:54:39.741Z,960.05
2022-12-29T13:57:06.086Z,960.09
2022-12-29T13:59:32.448Z,960.10
2022-12-29T14:01:58.978Z,960.13
2022-12-29T14:04:25.182Z,960.17
2022-12-29T14:06:51.522Z,960.07
2022-12-29T14:09:17.844Z,960.20
2022-12-29T14:11:44.192Z,960.15
2022-12-29T14:14:10.695Z,960.07
2022-12-29T14:16:37.042Z,960.15
2022-12-29T14:19:03.348Z,960.21
2022-12-29T14:21:29.690Z,960.29
2022-12-29T14:23:56.097Z,960.24
2022-12-29T14:26:22.438Z,960.32
2022-12-29T14:28:48.763Z,960.33
2022-12-29T14:31:15.156Z,960.38
2022-12-29T14:33:41.494Z,960.29
2022-12-29T14:36:07.891Z,960.36
2022-12-29T14:38:34.209Z,960.45
2022-12-29T14:41:00.556Z,960.35
2022-12-29T14:43:26.933Z,960.38
2022-12-29T14:45:53.284Z,960.41
2022-12-29T14:48:19.695Z,960.37
2022-12-29T14:50:46.076Z,960.36
2022-12-29T14:53:12.427Z,960.35
2022-12-29T14:55:38.763Z,960.40
2022-12-29T14:58:10.203Z,960.38
2022-12-29T15:00:31.509Z,960.44
2022-12-29T15:02:57.856Z,960.39
2022-12-29T15:05:24.162Z,960.36
2022-12-29T15:07:50.478Z,960.42
2022-12-29T15:10:16.830Z,960.39
2022-12-29T15:12:43.158Z,960.35
2022-12-29T15:15:09.508Z,960.36
2022-12-29T15:17:35.869Z,960.30
2022-12-29T15:20:02.210Z,960.36
2022-12-29T15:22:28.588Z,960.30
2022-12-29T15:24:54.956Z,960.34
2022-12-29T15:27:21.340Z,960.33
2022-12-29T15:29:47.696Z,960.33
2022-12-29T15:32:14.125Z,960.35
2022-12-29T15:34:40.453Z,960.34
2022-12-29T15:37:06.768Z,960.35
2022-12-29T15:39:33.116Z,960.29
2022-12-29T15:41:59.475Z,960.27
2022-12-29T15:44:25.867Z,960.31
2022-12-29T15:46:52.186Z,960.26
2022-12-29T15:49:21.084Z,960.30
2022-12-29T15:51:47.452Z,960.32
2022-12-29T15:54:13.800Z,960.34
2022-12-29T15:56:40.200Z,960.33
2022-12-29T15:59:06.509Z,960.33
2022-12-29T16:01:33.001Z,960.32
2022-12-29T16:03:59.239Z,960.32
2022-12-29T16:06:25.549Z,960.34
2022-12-29T16:08:51.895Z,960.34
2022-12-29T16:11:18.218Z,960.37
2022-12-29T16:13:44.614Z,960.34
2022-12-29T16:16:10.961Z,960.33
2022-12-29T16:18:37.278Z,960.37
2022-12-29T16:21:03.607Z,960.38
2022-12-29T16:23:30.009Z,960.37
2022-12-29T16:25:56.364Z,960.35
2022-12-29T16:28:22.697Z,960.38
2022-12-29T16:30:49.077Z,960.32
2022-12-29T16:33:15.403Z,960.33
2022-12-29T16:35:43.866Z,960.33
2022-12-29T16:38:08.112Z,960.35
2022-12-29T16:40:34.431Z,960.32
2022-12-29T16:43:00.844Z,960.35
2022-12-29T16:45:27.163Z,960.39
2022-12-29T16:47:53.500Z,960.47
2022-12-29T16:50:23.507Z,960.43
2022-12-29T16:52:46.250Z,960.52
2022-12-29T16:55:12.564Z,960.43
2022-12-29T16:57:38.961Z,960.49
2022-12-29T17:00:05.275Z,960.48
2022-12-29T17:02:31.765Z,960.45
2022-12-29T17:04:57.978Z,960.50
2022-12-29T17:07:24.337Z,960.52
2022-12-29T17:09:50.680Z,960.55
2022-12-29T17:12:17.062Z,960.59
2022-12-29T17:14:43.392Z,960.66
2022-12-29T17:17:09.829Z,960.63
2022-12-29T17:19:36.190Z,960.61
2022-12-29T17:22:02.569Z,960.55
2022-12-29T17:24:28.918Z,960.50
2022-12-29T17:26:55.303Z,960.48
2022-12-29T17:29:21.617Z,960.48
2022-12-29T17:31:47.953Z,960.47
2022-12-29T17:34:14.315Z,960.53
2022-12-29T17:36:40.693Z,960.57
2022-12-29T17:39:07.014Z,960.51
2022-12-29T17:41:33.397Z,960.56
2022-12-29T17:43:59.711Z,960.55
2022-12-29T17:46:26.180Z,960.57
2022-12-29T17:48:53.995Z,960.58
2022-12-29T17:51:18.772Z,960.54
2022-12-29T17:53:45.112Z,960.58
2022-12-29T17:56:11.513Z,960.60
2022-12-29T17:58:37.816Z,960.57
2022-12-29T18:01:04.235Z,960.53
2022-12-29T18:03:30.797Z,960.57
2022-12-29T18:05:56.940Z,960.51
2022-12-29T18:08:23.297Z,960.53
2022-12-29T18:10:49.631Z,960.39
2022-12-29T18:13:15.953Z,960.45
2022-12-29T18:15:42.346Z,960.44
2022-12-29T18:18:08.652Z,960.41
2022-12-29T18:20:35.042Z,960.36
2022-12-29T18:23:01.360Z,960.43
2022-12-29T18:25:27.706Z,960.43
2022-12-29T18:27:54.075Z,960.36
2022-12-29T18:30:20.490Z,960.38
2022-12-29T18:32:46.842Z,960.32
2022-12-29T18:35:13.249Z,960.33
2022-12-29T18:37:39.623Z,960.45
2022-12-29T18:40:06.019Z,960.47
2022-12-29T18:42:32.344Z,960.40
2022-12-29T18:44:58.681Z,960.44
2022-12-29T18:47:25.046Z,960.43
2022-12-29T18:49:51.389Z,960.42
2022-12-29T18:52:19.826Z,960.42
2022-12-29T18:54:44.104Z,960.39
2022-12-29T18:57:10.498Z,960.44
2022-12-29T18:59:36.841Z,960.45
2022-12-29T19:02:03.250Z,960.42
2022-12-29T19:04:29.536Z,960.45
2022-12-29T19:06:55.893Z,960.46
2022-12-29T19:09:22.284Z,960.45
2022-12-29T19:11:48.677Z,960.45
2022-12-29T19:14:15.057Z,960.54
2022-12-29T19:16:41.538Z,960.44
2022-12-29T19:19:09.618Z,960.51
2022-12-29T19:21:34.180Z,960.46
2022-12-29T19:24:00.493Z,960.41
2022-12-29T19:26:26.861Z,960.48
2022-12-29T19:28:53.200Z,960.42
2022-12-29T19:31:19.549Z,960.38
2022-12-29T19:33:45.911Z,960.37
2022-12-29T19:36:12.238Z,960.44
2022-12-29T19:38:38.584Z,960.46
2022-12-29T19:41:04.949Z,960.41
2022-12-29T19:43:31.398Z,960.44
2022-12-29T19:45:57.717Z,960.46
2022-12-29T19:48:24.119Z,960.43
2022-12-29T19:50:50.433Z,960.44
2022-12-29T19:53:16.877Z,960.44
2022-12-29T19:55:43.213Z,960.53
2022-12-29T19:58:09.593Z,960.55
2022-12-29T20:00:35.998Z,960.51
2022-12-29T20:03:02.544Z,960.42
2022-12-29T20:05:28.676Z,960.43
2022-12-29T20:07:55.171Z,960.48
2022-12-29T20:10:21.481Z,960.59
2022-12-29T20:12:47.835Z,960.55
2022-12-29T20:15:14.202Z,960.48
2022-12-29T20:20:06.902Z,960.59
2022-12-29T20:22:33.323Z,960.66
2022-12-29T20:25:25.976Z,960.70
2022-12-29T20:27:26.065Z,960.64
2022-12-29T20:29:52.418Z,960.60
2022-12-29T20:32:18.812Z,960.55
2022-12-29T20:34:45.192Z,960.59
2022-12-29T20:37:11.523Z,960.58
2022-12-29T20:39:37.863Z,960.59
2022-12-29T20:42:04.241Z,960.58
2022-12-29T20:44:30.603Z,960.60
2022-12-29T20:46:56.973Z,960.58
2022-12-29T20:49:23.327Z,960.63
2022-12-29T20:52:06.865Z,960.67
2022-12-29T20:54:16.008Z,960.66
2022-12-29T20:56:42.408Z,960.67
2022-12-29T20:59:27.090Z,960.66
2022-12-29T21:01:35.264Z,960.72
2022-12-29T21:04:01.437Z,960.77
2022-12-29T21:06:27.783Z,960.70
2022-12-29T21:08:54.113Z,960.72
2022-12-29T21:11:20.510Z,960.70
2022-12-29T21:13:46.876Z,960.69
2022-12-29T21:16:13.268Z,960.75
2022-12-29T21:18:39.563Z,960.71
2022-12-29T21:21:05.959Z,960.80
2022-12-29T21:23:32.366Z,960.76
2022-12-29T21:25:58.700Z,960.66
2022-12-29T21:28:25.071Z,960.66
2022-12-29T21:30:51.455Z,960.66
2022-12-29T21:33:17.820Z,960.63
2022-12-29T21:35:44.163Z,960.68
2022-12-29T21:38:10.479Z,960.60
2022-12-29T21:40:36.882Z,960.65
2022-12-29T21:43:03.200Z,960.60
2022-12-29T21:45:29.599Z,960.52
2022-12-29T21:47:55.956Z,960.56
2022-12-29T21:50:22.310Z,960.51
2022-12-29T21:52:48.639Z,960.45
2022-12-29T21:55:15.049Z,960.46
2022-12-29T21:57:41.389Z,960.48
2022-12-29T22:00:07.760Z,960.51
2022-12-29T22:02:34.286Z,960.49
2022-12-29T22:05:00.484Z,960.41
2022-12-29T22:07:26.840Z,960.44
2022-12-29T22:09:53.188Z,960.46
2022-12-29T22:12:19.524Z,960.42
2022-12-29T22:14:45.905Z,960.43
2022-12-29T22:17:14.263Z,960.43
2022-12-29T22:19:38.644Z,960.38
2022-12-29T22:22:04.991Z,960.41
2022-12-29T22:24:31.388Z,960.45
2022-12-29T22:26:57.741Z,960.51
2022-12-29T22:29:24.081Z,960.43
2022-12-29T22:31:50.396Z,960.40
2022-12-29T22:34:16.821Z,960.42
2022-12-29T22:36:43.108Z,960.39
2022-12-29T22:39:09.454Z,960.43
2022-12-29T22:41:35.777Z,960.41
2022-12-29T22:44:02.164Z,960.43
2022-12-29T22:46:28.526Z,960.36
2022-12-29T22:48:54.823Z,960.36
2022-12-29T22:51:21.154Z,960.45
2022-12-29T22:53:47.546Z,960.39
2022-12-29T22:56:13.876Z,960.44
2022-12-29T22:58:40.228Z,960.47
2022-12-29T23:01:06.624Z,960.45
2022-12-29T23:03:33.007Z,960.37
2022-12-29T23:05:59.247Z,960.41
2022-12-29T23:08:25.593Z,960.48
2022-12-29T23:10:52.000Z,960.45
2022-12-29T23:13:18.380Z,960.40
2022-12-29T23:15:44.731Z,960.42
2022-12-29T23:18:11.096Z,960.42
2022-12-29T23:20:37.418Z,960.34
2022-12-29T23:23:03.792Z,960.36
2022-12-29T23:25:30.158Z,960.36
2022-12-29T23:27:56.489Z,960.38
2022-12-29T23:30:22.833Z,960.38
2022-12-29T23:32:49.175Z,960.33
2022-12-29T23:35:15.538Z,960.30
2022-12-29T23:37:41.877Z,960.27
2022-12-29T23:40:08.204Z,960.32
2022-12-29T23:42:34.551Z,960.34
2022-12-29T23:45:00.923Z,960.24
2022-12-29T23:47:27.298Z,960.29
2022-12-29T23:49:53.647Z,960.20
2022-12-29T23:52:20.036Z,960.32
2022-12-29T23:54:46.394Z,960.21
2022-12-29T23:57:12.778Z,960.22
2022-12-29T23:59:39.112Z,960.24
